< Typhoon 198901 1989 Season Typhoon 198903 >
Typhoon 198902 (ANDY)
General InformationTrack Information on Google MapsDetailed Wind InformationList of All Images || Disaster Info.ResourceGoogle EarthGE AnimationAtom FeedGeoJSON
Detalied Best Track (Time Zone = UTC)
Year Month Day Hour Lat. Long. Pressure (hPa) Wind (kt) Class Image Chart
1989 4 17 00 8.0 147.0 1002 0 2 Image Chart
1989 4 17 06 8.0 147.0 1002 0 2 Image Chart
1989 4 17 12 8.0 147.0 1002 0 2 Image Chart
1989 4 17 18 8.0 147.0 1000 0 2 Image Chart
1989 4 18 00 8.5 147.0 998 35 3 Image Chart
1989 4 18 06 9.4 146.2 996 40 3 Image Chart
1989 4 18 12 9.7 145.5 994 40 3 Image Chart
1989 4 18 18 9.7 144.5 992 45 3 Image Chart
1989 4 19 00 9.7 143.8 990 45 3 Image Chart
1989 4 19 06 9.8 143.4 985 50 4 Image Chart
1989 4 19 12 9.8 143.3 980 55 4 Image Chart
1989 4 19 18 10.1 143.2 975 60 4 Image Chart
1989 4 20 00 10.6 143.4 970 65 5 Image Chart
1989 4 20 06 11.0 143.7 960 75 5 Image Chart
1989 4 20 12 11.5 144.2 945 85 5 Image Chart
1989 4 20 18 12.0 145.0 930 95 5 Image Chart
1989 4 21 00 12.6 145.9 920 100 5 Image Chart
1989 4 21 06 13.5 147.0 920 100 5 Image Chart
1989 4 21 12 14.3 148.3 920 100 5 Image Chart
1989 4 21 18 15.5 149.5 920 100 5 Image Chart
1989 4 22 00 16.6 150.6 925 95 5 Image Chart
1989 4 22 06 17.9 151.7 930 90 5 Image Chart
1989 4 22 12 19.0 152.7 940 85 5 Image Chart
1989 4 22 18 19.9 153.7 950 80 5 Image Chart
1989 4 23 00 20.6 154.6 960 70 5 Image Chart
1989 4 23 06 21.5 155.2 970 65 5 Image Chart
1989 4 23 12 22.5 155.8 975 60 4 Image Chart
1989 4 23 18 23.4 156.4 985 50 4 Image Chart
1989 4 24 00 24.3 156.8 990 45 3 Image Chart
1989 4 24 06 25.2 157.7 990 45 3 Image Chart
1989 4 24 12 26.1 158.5 992 40 3 Image Chart
1989 4 24 18 27.1 159.4 994 40 3 Image Chart
1989 4 25 00 28.3 160.4 996 35 3 Image Chart
1989 4 25 06 29.7 161.6 1000 0 2 Image Chart
1989 4 25 12 31.3 163.1 1004 0 2 Image Chart
1989 4 25 18 33.5 165.0 1006 0 2 Image Chart
Japan Meteorological Agency Best Track Data | Correction Date : 1992-10-21
< Typhoon 198901 1989 Season Typhoon 198903 >

Help